Time;durP1;ratioP1;P1;durP2;ratioP2;P2;SDS_P1;SDS_P2;PMS_P1;PMS_P2;Temp;Humidity;BMP_temperature;BMP_pressure;BME280_temperature;BME280_humidity;BME280_pressure;Samples;Min_cycle;Max_cycle;Signal;HPM_P1;HPM_P2
2022/08/24 00:00:19;;;;;;;12.27;7.57;;;;;;;20.39;72.30;99694.41;7765355;32;39282;-72
2022/08/24 00:04:35;;;;;;;12.70;7.03;;;;;;;20.56;71.18;99697.00;7766063;32;40781;-71
2022/08/24 00:08:53;;;;;;;10.35;6.75;;;;;;;20.91;70.22;99702.19;7739455;32;37886;-71
2022/08/24 00:13:09;;;;;;;15.07;7.87;;;;;;;20.95;69.77;99703.13;7739516;32;37079;-72
2022/08/24 00:17:25;;;;;;;14.80;7.32;;;;;;;21.04;69.58;99699.44;7739326;32;40141;-71
2022/08/24 00:21:42;;;;;;;12.80;7.65;;;;;;;20.84;70.16;99695.63;7738178;32;40833;-72
2022/08/24 00:25:58;;;;;;;11.80;7.93;;;;;;;21.19;68.92;99693.22;7739175;32;37879;-72
2022/08/24 00:30:16;;;;;;;12.70;8.45;;;;;;;20.91;69.49;99696.66;7743158;32;37083;-72
2022/08/24 00:34:33;;;;;;;13.07;8.93;;;;;;;20.62;70.63;99703.97;7765849;32;39018;-71
2022/08/24 00:38:49;;;;;;;11.88;7.97;;;;;;;20.54;70.78;99696.53;7765935;32;39893;-72
2022/08/24 00:43:07;;;;;;;13.15;9.13;;;;;;;20.74;70.43;99700.41;7765872;32;37827;-72
2022/08/24 00:47:30;;;;;;;13.30;8.88;;;;;;;20.71;70.32;99706.63;7765987;32;37273;-71
2022/08/24 00:51:53;;;;;;;;;;;;;;;20.57;71.19;99718.00;7765177;32;39433;-71
2022/08/24 00:56:13;;;;;;;12.55;8.55;;;;;;;20.87;69.62;99720.66;7766110;32;41028;-71
2022/08/24 01:00:33;;;;;;;12.55;8.20;;;;;;;20.86;69.62;99716.25;7764264;32;37846;-72
2022/08/24 01:04:54;;;;;;;13.70;8.55;;;;;;;21.05;69.09;99707.41;7765811;32;37251;-72
2022/08/24 01:09:10;;;;;;;14.27;9.43;;;;;;;20.79;70.15;99700.19;7765793;32;39341;-72
2022/08/24 01:13:27;;;;;;;15.05;9.20;;;;;;;20.87;69.75;99704.03;7765650;32;41308;-72
2022/08/24 01:22:31;;;;;;;13.70;9.10;;;;;;;20.71;70.10;99714.16;7765632;32;37978;-71
2022/08/24 01:26:49;;;;;;;13.75;9.43;;;;;;;20.84;69.70;99706.69;7748994;32;40182;-72
2022/08/24 01:31:05;;;;;;;13.02;9.65;;;;;;;20.95;69.38;99705.88;7738416;32;39503;-72
2022/08/24 01:35:22;;;;;;;15.20;9.27;;;;;;;20.79;69.63;99708.50;7737893;32;37823;-71
2022/08/24 01:39:46;;;;;;;19.67;9.48;;;;;;;20.71;70.17;99716.91;7738355;32;37935;-71
2022/08/24 01:44:04;;;;;;;14.70;9.82;;;;;;;20.87;69.65;99709.59;7737085;32;38764;-71
2022/08/24 01:48:21;;;;;;;17.95;10.35;;;;;;;20.78;69.63;99715.22;7737717;32;39863;-71
2022/08/24 01:52:40;;;;;;;17.70;11.12;;;;;;;20.63;70.14;99705.59;7739198;32;37913;-72
2022/08/24 01:57:16;;;;;;;15.77;9.90;;;;;;;20.46;70.97;99716.81;7743256;32;38435;-72
2022/08/24 02:01:37;;;;;;;18.12;9.90;;;;;;;20.49;71.11;99718.91;7765286;32;39097;-72
2022/08/24 02:05:53;;;;;;;16.00;11.12;;;;;;;20.41;71.44;99714.25;7763994;32;39920;-71
2022/08/24 02:10:12;;;;;;;17.92;10.55;;;;;;;20.55;70.76;99720.28;7764802;32;38117;-72
2022/08/24 02:14:28;;;;;;;17.12;11.73;;;;;;;20.15;72.39;99742.97;7763776;32;36701;-72
2022/08/24 02:18:47;;;;;;;15.43;10.93;;;;;;;19.58;74.62;99743.47;7764981;32;40163;-71
2022/08/24 02:23:05;;;;;;;18.85;10.98;;;;;;;20.10;72.75;99737.62;7763595;32;40854;-71
2022/08/24 02:27:21;;;;;;;19.87;12.82;;;;;;;20.09;72.49;99747.06;7762064;32;38002;-71
2022/08/24 02:31:37;;;;;;;17.52;11.52;;;;;;;20.26;72.15;99746.12;7764647;32;37251;-72
2022/08/24 02:35:53;;;;;;;17.65;11.57;;;;;;;20.37;71.61;99744.56;7764658;32;40069;-72
2022/08/24 02:40:11;;;;;;;16.45;10.45;;;;;;;19.97;72.98;99758.06;7764390;32;40688;-72
2022/08/24 02:44:28;;;;;;;15.68;10.65;;;;;;;20.17;72.33;99760.03;7764340;32;37877;-72
2022/08/24 02:48:44;;;;;;;15.18;10.63;;;;;;;20.39;71.59;99755.31;7764317;32;37210;-72
2022/08/24 02:53:08;;;;;;;18.70;11.02;;;;;;;20.58;70.74;99752.84;7764531;32;39434;-72
2022/08/24 02:57:24;;;;;;;17.20;11.52;;;;;;;20.43;71.30;99745.97;7745657;32;39853;-72
2022/08/24 03:01:41;;;;;;;16.65;10.98;;;;;;;20.32;71.68;99750.31;7736991;32;37596;-72
2022/08/24 03:05:57;;;;;;;17.75;11.15;;;;;;;20.50;70.94;99750.97;7737024;32;38041;-72
2022/08/24 03:10:14;;;;;;;18.85;11.07;;;;;;;20.52;70.87;99743.13;7737449;32;39324;-72
2022/08/24 03:14:30;;;;;;;19.73;11.60;;;;;;;20.24;72.07;99743.69;7763657;32;39927;-72
2022/08/24 03:18:46;;;;;;;16.58;10.75;;;;;;;19.61;74.39;99740.00;7763416;32;38685;-72
2022/08/24 03:23:04;;;;;;;18.27;11.98;;;;;;;20.34;71.89;99744.44;7761836;32;37235;-72
2022/08/24 03:27:20;;;;;;;18.27;10.88;;;;;;;20.32;71.43;99738.44;7736771;32;39476;-72
2022/08/24 03:31:36;;;;;;;17.62;11.15;;;;;;;20.16;71.71;99741.81;7745326;32;39908;-72
2022/08/24 03:35:54;;;;;;;15.75;10.95;;;;;;;20.54;70.89;99734.47;7761681;32;37976;-72
2022/08/24 03:40:11;;;;;;;18.70;11.32;;;;;;;20.77;69.99;99743.25;7762957;32;38111;-71
2022/08/24 03:44:40;;;;;;;17.17;11.98;;;;;;;20.47;70.88;99745.28;7763067;32;39402;-72
2022/08/24 03:48:57;;;;;;;17.73;11.80;;;;;;;20.65;69.92;99732.16;7761728;32;40824;-71
2022/08/24 03:53:14;;;;;;;17.58;11.05;;;;;;;20.52;70.72;99729.28;7750831;32;38679;-71
2022/08/24 03:57:30;;;;;;;16.67;11.07;;;;;;;20.48;70.60;99738.62;7761777;32;37142;-72
2022/08/24 04:01:46;;;;;;;17.15;11.63;;;;;;;20.53;70.78;99741.97;7762561;32;39108;-72
2022/08/24 04:06:04;;;;;;;17.87;11.32;;;;;;;20.51;70.89;99735.19;7762718;32;39869;-72
2022/08/24 04:10:20;;;;;;;17.00;10.60;;;;;;;20.69;70.23;99730.31;7762618;32;38002;-76
2022/08/24 04:14:37;;;;;;;18.35;11.10;;;;;;;20.32;72.24;99743.97;7738972;32;37169;-76
2022/08/24 04:18:53;;;;;;;22.30;13.88;;;;;;;20.46;72.01;99744.50;7739166;32;39275;-71
2022/08/24 04:23:10;;;;;;;20.40;12.98;;;;;;;20.30;72.06;99751.78;7739988;32;39841;-71
2022/08/24 04:27:27;;;;;;;21.58;13.02;;;;;;;20.49;71.09;99749.37;7739145;32;37991;-70
2022/08/24 04:31:44;;;;;;;18.83;12.75;;;;;;;20.72;70.24;99755.34;7738974;32;37913;-71
2022/08/24 04:36:04;;;;;;;20.27;13.75;;;;;;;20.21;72.29;99749.91;7738027;32;38827;-72
2022/08/24 04:40:20;;;;;;;21.70;13.77;;;;;;;20.18;72.44;99747.81;7743578;32;39748;-71
2022/08/24 04:44:36;;;;;;;20.05;12.98;;;;;;;20.42;71.39;99744.38;7765425;32;37866;-71
2022/08/24 04:48:53;;;;;;;19.83;13.55;;;;;;;20.62;71.05;99747.47;7765557;32;36871;-73
2022/08/24 04:53:10;;;;;;;25.17;14.40;;;;;;;20.41;71.73;99753.81;7756441;32;39440;-72
2022/08/24 04:57:26;;;;;;;20.77;13.52;;;;;;;20.63;70.92;99746.34;7758667;32;39557;-77
2022/08/24 05:01:44;;;;;;;22.13;13.68;;;;;;;20.77;70.36;99748.81;7741377;32;38098;-72
2022/08/24 05:06:01;;;;;;;18.92;13.05;;;;;;;20.46;71.41;99738.97;7738725;32;37317;-71
2022/08/24 05:10:17;;;;;;;23.23;13.40;;;;;;;20.70;70.52;99740.25;7739459;32;39312;-74
2022/08/24 05:14:33;;;;;;;22.15;13.62;;;;;;;20.50;71.65;99739.88;7738617;32;39960;-78
2022/08/24 05:18:50;;;;;;;20.88;13.43;;;;;;;20.54;71.72;99754.69;7738217;32;38687;-77
2022/08/24 05:23:06;;;;;;;25.85;13.15;;;;;;;20.83;70.85;99739.09;7758462;32;37946;-77
2022/08/24 05:27:23;;;;;;;23.42;13.07;;;;;;;20.79;70.68;99743.72;7750845;32;40077;-71
2022/08/24 05:31:42;;;;;;;20.27;13.00;;;;;;;20.52;71.16;99753.41;7738142;32;40701;-71
2022/08/24 05:35:58;;;;;;;22.13;12.80;;;;;;;20.91;69.41;99760.38;7737139;32;38757;-71
2022/08/24 05:40:17;;;;;;;17.00;11.73;;;;;;;20.59;70.33;99754.47;7746927;32;37206;-71
2022/08/24 05:44:33;;;;;;;20.73;12.77;;;;;;;20.95;69.34;99744.69;7744271;32;39301;-71
2022/08/24 05:48:49;;;;;;;21.27;11.48;;;;;;;20.99;69.67;99740.09;7738218;32;39582;-71
2022/08/24 05:53:08;;;;;;;17.73;10.40;;;;;;;21.24;69.14;99734.56;7739590;32;38060;-72
2022/08/24 05:57:25;;;;;;;17.40;10.60;;;;;;;21.41;68.48;99738.28;7738246;32;37110;-72
2022/08/24 06:01:41;;;;;;;16.10;10.35;;;;;;;21.52;68.13;99720.84;7738114;32;39182;-72
2022/08/24 06:06:02;;;;;;;17.02;9.30;;;;;;;21.50;67.76;99730.69;7738163;32;40932;-71
2022/08/24 06:10:18;;;;;;;14.80;9.98;;;;;;;21.45;67.78;99728.13;7738403;32;37851;-71
2022/08/24 06:14:52;;;;;;;15.25;9.93;;;;;;;21.15;68.57;99731.09;7738660;32;37254;-71
2022/08/24 06:19:10;;;;;;;16.27;10.35;;;;;;;21.43;67.81;99734.00;7741910;32;39977;-71
2022/08/24 06:23:26;;;;;;;18.87;11.88;;;;;;;21.46;67.46;99738.06;7753417;32;42472;-71
2022/08/24 06:27:42;;;;;;;17.40;11.68;;;;;;;21.20;68.42;99736.44;7764532;32;37905;-72
2022/08/24 06:31:58;;;;;;;17.73;11.35;;;;;;;20.76;70.42;99736.09;7763941;32;37402;-72
2022/08/24 06:36:14;;;;;;;17.02;10.35;;;;;;;20.45;71.94;99752.00;7764578;32;39197;-73
2022/08/24 06:40:35;;;;;;;18.17;11.12;;;;;;;20.97;70.15;99747.94;7762062;32;39910;-72
2022/08/24 06:44:51;;;;;;;16.10;10.88;;;;;;;20.80;70.33;99748.13;7737535;32;37669;-70
2022/08/24 06:49:07;;;;;;;18.83;11.35;;;;;;;21.23;69.30;99752.38;7736863;32;37648;-70
2022/08/24 06:53:24;;;;;;;14.60;9.50;;;;;;;21.01;69.54;99761.91;7737276;32;40049;-70
2022/08/24 06:57:40;;;;;;;14.90;9.85;;;;;;;21.43;68.21;99758.97;7735592;32;41431;-72
2022/08/24 07:01:57;;;;;;;18.67;10.48;;;;;;;21.46;68.44;99758.31;7736945;32;37629;-72
2022/08/24 07:06:13;;;;;;;16.73;10.20;;;;;;;21.14;69.39;99768.28;7735682;32;37228;-72
2022/08/24 07:10:30;;;;;;;17.95;12.35;;;;;;;21.02;69.99;99766.28;7739703;32;40075;-71
2022/08/24 07:14:46;;;;;;;18.35;11.57;;;;;;;21.49;68.42;99767.88;7745204;32;40840;-70
2022/08/24 07:19:03;;;;;;;17.50;11.38;;;;;;;21.36;68.83;99776.16;7742264;32;38807;-70
2022/08/24 07:23:20;;;;;;;18.90;12.27;;;;;;;21.39;68.95;99775.47;7749988;32;38108;-71
2022/08/24 07:27:49;;;;;;;19.85;12.37;;;;;;;21.61;67.78;99792.88;7738641;32;39251;-71
2022/08/24 07:32:05;;;;;;;16.62;10.82;;;;;;;21.56;68.12;99793.09;7762809;32;40095;-71
2022/08/24 07:36:21;;;;;;;18.83;12.02;;;;;;;22.08;66.91;99794.34;7763010;32;38793;-70
2022/08/24 07:40:37;;;;;;;20.90;12.00;;;;;;;20.83;71.16;99800.06;7755892;32;38031;-70
2022/08/24 07:45:13;;;;;;;22.58;10.98;;;;;;;22.04;67.13;99798.97;7734813;32;39694;-70
2022/08/24 07:49:31;;;;;;;17.17;11.43;;;;;;;22.13;66.61;99803.25;7735766;32;40568;-70
2022/08/24 07:53:52;;;;;;;18.25;11.23;;;;;;;22.03;66.46;99808.47;7752851;32;37608;-70
2022/08/24 07:58:09;;;;;;;16.58;11.45;;;;;;;22.10;67.21;99800.38;7740001;32;37429;-71
2022/08/24 08:02:26;;;;;;;18.00;12.20;;;;;;;22.51;66.19;99812.34;7739286;32;38968;-71
2022/08/24 08:06:52;;;;;;;16.20;11.15;;;;;;;22.44;65.49;99806.59;7762303;32;40115;-71
2022/08/24 08:11:09;;;;;;;15.70;10.20;;;;;;;22.16;66.20;99806.47;7765562;32;38811;-71
2022/08/24 08:15:25;;;;;;;19.12;11.30;;;;;;;22.88;64.94;99813.00;7764897;32;37185;-71
2022/08/24 08:19:42;;;;;;;14.25;9.63;;;;;;;23.41;62.79;99810.06;7764875;32;39465;-71
2022/08/24 08:24:13;;;;;;;15.00;9.20;;;;;;;23.82;61.91;99804.34;7766307;32;39961;-70
2022/08/24 08:28:33;;;;;;;10.98;7.62;;;;;;;24.16;61.78;99808.34;7766153;32;38618;-71
2022/08/24 08:32:51;;;;;;;11.38;7.68;;;;;;;24.36;61.30;99798.00;7753394;32;37088;-71
2022/08/24 08:37:07;;;;;;;12.95;8.00;;;;;;;24.77;60.06;99805.25;7752748;32;39349;-71
2022/08/24 08:41:50;;;;;;;15.35;8.50;;;;;;;24.45;60.66;99810.94;7752039;32;39986;-72
2022/08/24 08:46:10;;;;;;;14.10;8.02;;;;;;;24.09;61.41;99807.34;7763606;32;37919;-70
2022/08/24 08:50:47;;;;;;;14.32;8.57;;;;;;;24.40;61.14;99809.22;7761989;32;37857;-70
2022/08/24 08:55:17;;;;;;;13.93;7.75;;;;;;;23.36;63.92;99813.13;7760108;32;38958;-70
2022/08/24 08:59:52;;;;;;;13.43;7.90;;;;;;;23.86;63.30;99818.34;7747921;32;40744;-70
2022/08/24 09:04:16;;;;;;;13.00;8.00;;;;;;;23.17;65.14;99824.13;7737661;32;37877;-71
2022/08/24 09:09:10;;;;;;;11.43;7.60;;;;;;;24.13;62.98;99822.97;7738586;32;37913;-70
2022/08/24 09:13:49;;;;;;;11.12;6.85;;;;;;;24.33;61.01;99809.87;7738795;32;40061;-70
2022/08/24 09:18:17;;;;;;;10.38;6.78;;;;;;;25.12;60.32;99805.13;7736404;32;40053;-70
2022/08/24 09:22:40;;;;;;;9.40;5.78;;;;;;;25.15;60.04;99807.19;7736872;32;37854;-72
2022/08/24 09:27:04;;;;;;;12.87;6.20;;;;;;;25.61;60.45;99809.19;7746103;32;38018;-71
2022/08/24 09:31:40;;;;;;;8.85;4.85;;;;;;;25.85;58.64;99803.22;7746833;32;39227;-71
2022/08/24 09:36:08;;;;;;;9.55;5.60;;;;;;;26.75;56.17;99798.94;7736644;32;40600;-71
2022/08/24 09:40:41;;;;;;;13.95;5.05;;;;;;;26.93;54.51;99792.72;7737636;32;37930;-71
2022/08/24 09:45:22;;;;;;;7.85;5.07;;;;;;;27.32;54.72;99787.56;7738141;32;37238;-72
2022/08/24 09:50:01;;;;;;;9.55;5.30;;;;;;;27.28;53.88;99788.72;7737143;32;39275;-71
2022/08/24 09:54:56;;;;;;;9.50;4.72;;;;;;;27.53;53.73;99774.94;7741146;32;40581;-71
2022/08/24 09:59:33;;;;;;;13.62;5.55;;;;;;;28.01;52.14;99772.13;7765095;32;37669;-78
2022/08/24 10:03:58;;;;;;;9.80;5.50;;;;;;;27.87;52.32;99771.97;7765101;32;37069;-77
2022/08/24 10:08:33;;;;;;;11.80;4.87;;;;;;;27.98;52.13;99772.87;7752135;32;39130;-77
2022/08/24 10:12:52;;;;;;;8.93;5.03;;;;;;;27.89;52.39;99786.41;7758410;32;40570;-79
2022/08/24 10:17:33;;;;;;;9.18;5.40;;;;;;;28.06;52.83;99777.34;7748768;32;38826;-78
2022/08/24 10:22:36;;;;;;;9.80;4.95;;;;;;;27.92;53.13;99777.25;7733877;32;37799;-78
2022/08/24 10:27:17;;;;;;;11.57;5.30;;;;;;;27.71;52.63;99787.06;7740560;32;40400;-78
2022/08/24 10:31:54;;;;;;;10.95;5.32;;;;;;;27.38;54.32;99790.00;7762675;32;39870;-78
2022/08/24 10:36:23;;;;;;;12.45;5.90;;;;;;;27.23;54.96;99789.03;7750822;32;38672;-78
2022/08/24 10:40:44;;;;;;;10.82;6.12;;;;;;;26.97;55.19;99788.78;7741110;32;37081;-78
2022/08/24 10:45:25;;;;;;;9.07;5.68;;;;;;;26.74;55.96;99782.53;7736485;32;39439;-77
2022/08/24 10:49:41;;;;;;;10.27;5.60;;;;;;;26.28;56.77;99786.31;7737344;32;39915;-76
2022/08/24 10:53:57;;;;;;;22.02;7.75;;;;;;;26.43;58.53;99787.31;7737200;32;38678;-72
2022/08/24 10:58:44;;;;;;;12.90;7.15;;;;;;;25.94;61.16;99788.19;7737174;32;37658;-72
2022/08/24 11:03:20;;;;;;;12.60;7.47;;;;;;;25.85;62.17;99800.44;7758657;32;40113;-72
2022/08/24 11:08:21;;;;;;;32.53;20.48;;;;;;;25.73;63.26;99811.00;7763991;32;39761;-73
2022/08/24 11:12:41;;;;;;;21.55;11.27;;;;;;;25.66;64.01;99825.63;7724455;32;37804;-73
2022/08/24 11:17:15;;;;;;;13.60;7.80;;;;;;;25.41;64.64;99839.97;7753133;32;37197;-73
2022/08/24 11:21:35;;;;;;;19.60;7.97;;;;;;;25.15;64.67;99825.87;7744461;32;39474;-73
2022/08/24 11:25:57;;;;;;;14.52;8.00;;;;;;;24.80;66.44;99818.44;7767101;32;40525;-73
2022/08/24 11:30:19;;;;;;;12.33;7.13;;;;;;;24.76;67.30;99831.50;7766879;32;37899;-72
2022/08/24 11:34:38;;;;;;;12.97;7.77;;;;;;;24.41;66.32;99837.91;7766581;32;37747;-74
2022/08/24 11:39:24;;;;;;;12.75;8.02;;;;;;;24.69;66.33;99843.31;7748906;32;40049;-80
2022/08/24 11:43:52;;;;;;;19.30;8.95;;;;;;;24.64;66.92;99847.19;7748846;32;40602;-78
2022/08/24 11:48:34;;;;;;;15.95;8.32;;;;;;;24.51;67.29;99860.44;7765860;32;38581;-78
2022/08/24 11:53:04;;;;;;;18.10;9.23;;;;;;;24.51;67.28;99859.62;7765346;32;37812;-72
2022/08/24 11:57:40;;;;;;;18.98;9.27;;;;;;;24.54;67.95;99856.97;7765299;32;39024;-72
2022/08/24 12:02:34;;;;;;;13.65;8.68;;;;;;;24.41;68.28;99854.63;7765284;32;40536;-72
2022/08/24 12:07:24;;;;;;;15.77;10.05;;;;;;;24.54;68.00;99875.62;7749455;32;39274;-71
2022/08/24 12:12:22;;;;;;;16.15;8.15;;;;;;;24.55;67.96;99861.34;7765064;32;37298;-72
2022/08/24 12:16:44;;;;;;;12.82;8.68;;;;;;;24.59;67.06;99864.22;7764542;32;38121;-73
2022/08/24 12:21:01;;;;;;;16.60;9.07;;;;;;;24.49;67.15;99870.31;7764840;32;39709;-73
2022/08/24 12:30:04;;;;;;;15.10;8.52;;;;;;;24.53;67.43;99879.59;7764503;32;37100;-73
2022/08/24 12:34:39;;;;;;;15.63;8.65;;;;;;;24.17;68.62;99845.34;7765363;32;39119;-73
2022/08/24 12:39:24;;;;;;;17.58;9.07;;;;;;;24.29;68.58;99841.63;7766158;32;39950;-72
2022/08/24 12:43:47;;;;;;;15.20;8.98;;;;;;;24.25;69.60;99835.97;7764486;32;38623;-72
2022/08/24 12:48:29;;;;;;;12.60;8.27;;;;;;;24.39;69.38;99807.62;7765537;32;37873;-72
2022/08/24 12:53:07;;;;;;;11.37;7.63;;;;;;;24.29;70.30;99820.16;7766091;32;39384;-72
2022/08/24 12:57:49;;;;;;;12.23;7.60;;;;;;;24.60;69.16;99812.88;7765228;32;40071;-71
2022/08/24 13:02:17;;;;;;;11.35;7.20;;;;;;;24.48;70.35;99807.44;7765715;32;37867;-72
2022/08/24 13:06:49;;;;;;;12.57;7.22;;;;;;;24.70;70.11;99806.72;7764884;32;37081;-72
2022/08/24 13:11:29;;;;;;;9.90;6.28;;;;;;;24.95;69.53;99811.97;7765440;32;39990;-72
2022/08/24 13:15:50;;;;;;;11.18;6.60;;;;;;;25.50;68.29;99809.03;7764233;32;40833;-72
2022/08/24 13:20:30;;;;;;;12.18;5.82;;;;;;;25.76;68.46;99816.63;7765234;32;38648;-72
2022/08/24 13:24:52;;;;;;;8.32;4.87;;;;;;;25.95;66.36;99820.56;7765525;32;36652;-73
2022/08/24 13:29:08;;;;;;;10.47;5.90;;;;;;;25.84;65.14;99826.75;7764918;32;39277;-72
2022/08/24 13:33:36;;;;;;;8.57;5.68;;;;;;;25.60;65.01;99827.16;7764651;32;39844;-73
2022/08/24 13:38:37;;;;;;;10.88;5.30;;;;;;;25.33;65.52;99823.47;7764705;32;37908;-73
2022/08/24 13:43:15;;;;;;;10.98;5.80;;;;;;;25.97;65.88;99815.38;7763795;32;37125;-72
2022/08/24 13:48:01;;;;;;;9.20;4.47;;;;;;;26.63;64.25;99809.53;7763748;32;39459;-71
2022/08/24 13:52:28;;;;;;;6.35;2.65;;;;;;;27.39;58.93;99811.19;7764196;32;41039;-72
2022/08/24 13:56:46;;;;;;;7.12;3.78;;;;;;;27.50;55.42;99809.31;7763244;32;37837;-72
2022/08/24 14:01:41;;;;;;;8.40;4.12;;;;;;;26.54;56.85;99796.63;7765026;32;36339;-73
2022/08/24 14:06:24;;;;;;;9.25;4.30;;;;;;;27.94;52.80;99782.47;7688240;32;38997;-71
2022/08/24 14:11:06;;;;;;;10.23;4.60;;;;;;;29.00;53.26;99774.94;7763985;32;40785;-73
2022/08/24 14:15:25;;;;;;;9.00;4.62;;;;;;;28.23;51.59;99780.63;7764686;32;37873;-73
2022/08/24 14:19:48;;;;;;;8.60;4.95;;;;;;;27.67;52.80;99794.66;7764733;32;37836;-72
2022/08/24 14:24:11;;;;;;;9.48;4.43;;;;;;;28.22;53.01;99799.44;7765184;32;40524;-73
2022/08/24 14:28:27;;;;;;;;;;;;;;;28.59;51.36;99794.84;7763757;32;40712;-73
2022/08/24 14:32:59;;;;;;;9.32;4.37;;;;;;;28.42;53.41;99805.56;7764403;32;39060;-72
2022/08/24 14:37:33;;;;;;;8.02;4.55;;;;;;;28.06;54.01;99813.78;7764493;32;37094;-73
2022/08/24 14:42:17;;;;;;;10.48;4.70;;;;;;;27.86;54.76;99804.00;7763067;32;40062;-73
2022/08/24 14:46:51;;;;;;;13.18;5.37;;;;;;;27.52;56.27;99809.72;7753592;32;39770;-73
2022/08/24 14:51:31;;;;;;;17.12;5.43;;;;;;;27.25;57.10;99807.06;7764182;32;37971;-73
2022/08/24 14:55:57;;;;;;;10.82;5.00;;;;;;;27.32;57.05;99809.94;7764173;32;37082;-73
2022/08/24 15:00:46;;;;;;;11.05;4.80;;;;;;;26.95;59.27;99809.91;7762954;32;39349;-73
2022/08/24 15:05:34;;;;;;;11.00;4.55;;;;;;;26.82;60.20;99811.37;7763969;32;40910;-73
2022/08/24 15:09:52;;;;;;;12.25;6.60;;;;;;;26.84;58.35;99807.00;7763659;32;37578;-73
2022/08/24 15:14:20;;;;;;;17.40;8.15;;;;;;;26.81;59.02;99821.75;7763796;32;37893;-73
2022/08/24 15:18:47;;;;;;;12.25;6.07;;;;;;;26.79;60.36;99822.12;7762441;32;39879;-72
2022/08/24 15:23:10;;;;;;;13.82;5.20;;;;;;;26.64;61.76;99830.72;7763311;32;39956;-72
2022/08/24 15:27:26;;;;;;;13.50;4.55;;;;;;;26.40;63.15;99827.19;7761945;32;37612;-73
2022/08/24 15:31:53;;;;;;;11.38;4.57;;;;;;;26.26;64.10;99811.03;7762938;32;37558;-73
2022/08/24 15:36:13;;;;;;;12.45;5.30;;;;;;;26.35;63.62;99810.75;7762715;32;40065;-72
2022/08/24 15:40:31;;;;;;;14.00;4.85;;;;;;;26.13;65.20;99806.84;7761999;32;40095;-73
2022/08/24 15:44:52;;;;;;;12.63;6.18;;;;;;;26.01;65.00;99799.50;7761967;32;37813;-73
2022/08/24 15:49:48;;;;;;;13.65;6.82;;;;;;;26.10;64.44;99805.63;7759994;32;37129;-73
2022/08/24 15:54:17;;;;;;;14.20;6.80;;;;;;;26.06;64.41;99790.81;7760263;32;40079;-74
2022/08/24 15:58:39;;;;;;;18.42;6.97;;;;;;;25.95;64.97;99795.41;7758410;32;39865;-73
2022/08/24 16:03:15;;;;;;;17.00;7.20;;;;;;;25.67;66.38;99799.34;7760509;32;37856;-70
2022/08/24 16:07:54;;;;;;;11.70;6.03;;;;;;;25.76;65.78;99794.28;7760683;32;35882;-72
2022/08/24 16:12:15;;;;;;;13.45;6.12;;;;;;;25.73;66.14;99783.88;7762148;32;39987;-73
2022/08/24 16:16:41;;;;;;;14.50;6.28;;;;;;;25.64;66.72;99783.34;7757156;32;40052;-73
2022/08/24 16:20:59;;;;;;;13.40;6.35;;;;;;;25.11;68.34;99795.97;7758699;32;36652;-72
2022/08/24 16:25:17;;;;;;;13.55;6.00;;;;;;;25.32;67.22;99796.75;7764129;32;37010;-75
2022/08/24 16:29:36;;;;;;;13.52;6.30;;;;;;;25.21;67.21;99794.53;7765869;32;39349;-72
2022/08/24 16:34:07;;;;;;;13.45;5.65;;;;;;;25.39;67.26;99788.50;7765443;32;40034;-74
2022/08/24 16:38:24;;;;;;;10.65;5.82;;;;;;;25.42;67.57;99796.94;7765484;32;38569;-73
2022/08/24 16:42:40;;;;;;;9.75;5.78;;;;;;;25.42;66.32;99788.59;7765732;32;37932;-73
2022/08/24 16:46:56;;;;;;;15.85;7.30;;;;;;;25.63;66.67;99790.91;7765683;32;39049;-73
2022/08/24 16:51:12;;;;;;;13.35;7.20;;;;;;;25.67;66.40;99786.19;7765385;32;40595;-72
2022/08/24 16:55:28;;;;;;;11.18;5.85;;;;;;;25.80;65.82;99784.00;7764951;32;37616;-72
2022/08/24 16:59:47;;;;;;;15.25;6.47;;;;;;;25.66;65.43;99794.94;7765291;32;37297;-74
2022/08/24 17:04:05;;;;;;;10.13;6.07;;;;;;;25.58;66.16;99793.22;7765408;32;41136;-73
2022/08/24 17:08:26;;;;;;;15.48;6.60;;;;;;;25.48;66.68;99798.22;7765468;32;40860;-72
2022/08/24 17:12:42;;;;;;;14.77;6.57;;;;;;;25.32;67.14;99808.72;7765258;32;37631;-71
2022/08/24 17:17:01;;;;;;;16.90;6.75;;;;;;;25.24;67.46;99815.31;7764801;32;37081;-72
2022/08/24 17:21:19;;;;;;;14.30;6.90;;;;;;;25.26;67.31;99818.56;7765450;32;39255;-71
2022/08/24 17:25:36;;;;;;;13.55;6.57;;;;;;;25.02;67.86;99817.69;7765221;32;39577;-72
2022/08/24 17:29:53;;;;;;;14.55;6.70;;;;;;;25.02;67.38;99817.69;7763683;32;38179;-72
2022/08/24 17:34:09;;;;;;;16.35;7.28;;;;;;;25.06;67.02;99818.59;7764702;32;36810;-72
2022/08/24 17:38:25;;;;;;;15.63;6.70;;;;;;;24.97;67.18;99826.34;7764947;32;40009;-72
2022/08/24 17:42:41;;;;;;;12.82;6.75;;;;;;;25.08;66.55;99832.16;7764759;32;39851;-72
2022/08/24 17:47:06;;;;;;;15.90;5.90;;;;;;;24.88;67.04;99821.00;7765006;32;37951;-72
2022/08/24 17:51:22;;;;;;;14.27;6.80;;;;;;;24.87;67.08;99826.94;7765053;32;38358;-78
2022/08/24 17:55:38;;;;;;;14.52;6.75;;;;;;;24.82;67.25;99833.66;7765176;32;39867;-80
2022/08/24 17:59:55;;;;;;;14.48;6.70;;;;;;;24.72;67.23;99837.03;7765014;32;40541;-80
2022/08/24 18:04:11;;;;;;;14.30;6.72;;;;;;;24.86;66.75;99839.28;7764500;32;38646;-72
2022/08/24 18:08:27;;;;;;;15.80;6.55;;;;;;;24.78;66.75;99837.53;7759662;32;150043;-72
2022/08/24 18:12:43;;;;;;;15.73;6.78;;;;;;;24.63;67.29;99844.78;7764261;32;40038;-72
2022/08/24 18:17:03;;;;;;;16.80;6.70;;;;;;;24.54;67.74;99842.19;7763813;32;39699;-72
2022/08/24 18:21:20;;;;;;;13.70;6.32;;;;;;;24.55;67.53;99841.84;7763144;32;38823;-73
2022/08/24 18:25:38;;;;;;;13.45;6.75;;;;;;;24.69;67.04;99852.47;7764615;32;37325;-72
2022/08/24 18:29:59;;;;;;;20.83;7.85;;;;;;;24.59;67.42;99861.41;7762937;32;39163;-72
2022/08/24 18:34:20;;;;;;;14.35;7.15;;;;;;;24.48;67.62;99875.09;7763324;32;39987;-73
2022/08/24 18:38:37;;;;;;;14.57;7.37;;;;;;;24.45;67.71;99877.81;7764659;32;38485;-72
2022/08/24 18:42:54;;;;;;;17.65;6.97;;;;;;;24.37;68.04;99888.00;7764388;32;37911;-72
2022/08/24 18:47:11;;;;;;;14.15;6.55;;;;;;;24.37;67.84;99894.34;7764436;32;39953;-72
2022/08/24 18:51:30;;;;;;;12.52;7.25;;;;;;;24.28;68.07;99890.94;7750497;32;39655;-73
2022/08/24 18:55:49;;;;;;;13.37;7.70;;;;;;;24.28;68.03;99885.38;7764574;32;36882;-71
2022/08/24 19:00:07;;;;;;;19.20;7.12;;;;;;;24.26;67.95;99882.16;7764076;32;37310;-72
2022/08/24 19:04:23;;;;;;;18.17;6.20;;;;;;;24.16;67.96;99880.75;7763913;32;39239;-72
2022/08/24 19:08:48;;;;;;;17.05;6.55;;;;;;;24.17;67.61;99884.34;7763864;32;40221;-72
2022/08/24 19:13:14;;;;;;;10.77;6.85;;;;;;;24.25;67.04;99883.34;7762552;32;37987;-72
2022/08/24 19:17:30;;;;;;;18.67;6.40;;;;;;;24.03;67.84;99878.44;7762618;32;37836;-72
2022/08/24 19:21:46;;;;;;;13.90;6.07;;;;;;;23.84;68.38;99879.97;7763628;32;39259;-73
2022/08/24 19:26:05;;;;;;;9.48;5.78;;;;;;;24.02;68.00;99885.16;7762320;32;39657;-72
2022/08/24 19:30:22;;;;;;;15.02;5.95;;;;;;;23.99;67.22;99884.72;7762200;32;38001;-71
2022/08/24 19:34:38;;;;;;;16.55;6.85;;;;;;;23.96;66.95;99876.28;7763050;32;37911;-72
2022/08/24 19:38:58;;;;;;;17.33;7.10;;;;;;;23.72;67.57;99880.81;7763566;32;39033;-73
2022/08/24 19:43:14;;;;;;;15.27;7.15;;;;;;;23.73;67.55;99881.63;7765471;32;39983;-73
2022/08/24 19:47:33;;;;;;;13.70;6.87;;;;;;;23.79;67.14;99885.75;7766426;32;38633;-73
2022/08/24 19:51:49;;;;;;;14.60;7.15;;;;;;;23.85;66.97;99884.34;7765843;32;36627;-72
2022/08/24 19:56:07;;;;;;;17.45;7.93;;;;;;;23.77;67.27;99888.91;7766513;32;40101;-73
2022/08/24 20:00:35;;;;;;;13.25;6.72;;;;;;;23.75;67.26;99884.84;7766541;32;40842;-73
2022/08/24 20:04:51;;;;;;;15.98;7.68;;;;;;;23.86;66.57;99896.31;7765000;32;37481;-73
2022/08/24 20:09:08;;;;;;;17.30;7.25;;;;;;;23.79;66.62;99902.47;7766343;32;37118;-73
2022/08/24 20:13:25;;;;;;;17.25;7.68;;;;;;;23.69;67.00;99906.56;7766319;32;39294;-72
2022/08/24 20:17:41;;;;;;;14.27;7.30;;;;;;;23.48;67.76;99898.47;7765062;32;39998;-72
2022/08/24 20:21:58;;;;;;;13.00;7.45;;;;;;;23.51;67.49;99897.75;7764734;32;38708;-73
2022/08/24 20:26:15;;;;;;;14.68;6.93;;;;;;;23.31;68.24;99898.81;7764940;32;37910;-73
2022/08/24 20:30:33;;;;;;;15.48;7.35;;;;;;;23.35;67.76;99900.53;7765978;32;39893;-72